createdAt,value
2018-09-10T00:00:29.008Z,78.04
2018-09-10T00:01:34.068Z,78.11
2018-09-10T00:02:39.393Z,78.15
2018-09-10T00:03:43.924Z,77.76
2018-09-10T00:04:48.477Z,77.81
2018-09-10T00:05:53.021Z,77.46
2018-09-10T00:06:57.520Z,77.45
2018-09-10T00:08:02.231Z,77.69
2018-09-10T00:09:08.115Z,77.38
2018-09-10T00:10:12.655Z,77.76
2018-09-10T00:11:17.187Z,77.62
2018-09-10T00:12:21.778Z,77.83
2018-09-10T00:13:26.295Z,77.27
2018-09-10T00:14:30.836Z,77.40
2018-09-10T00:15:36.462Z,77.49
2018-09-10T00:16:40.957Z,77.50
2018-09-10T00:17:45.713Z,77.25
2018-09-10T00:18:50.573Z,77.13
2018-09-10T00:19:55.206Z,77.47
2018-09-10T00:20:59.861Z,77.27
2018-09-10T00:22:04.757Z,77.36
2018-09-10T00:23:09.538Z,77.18
2018-09-10T00:24:14.468Z,77.38
2018-09-10T00:25:19.285Z,77.30
2018-09-10T00:26:24.371Z,77.28
2018-09-10T00:27:29.026Z,77.01
2018-09-10T00:28:34.199Z,77.14
2018-09-10T00:29:38.851Z,77.28
2018-09-10T00:30:43.427Z,77.17
2018-09-10T00:31:48.080Z,77.10
2018-09-10T00:32:52.632Z,77.15
2018-09-10T00:33:57.454Z,77.52
2018-09-10T00:35:02.633Z,77.94
2018-09-10T00:36:07.372Z,78.46
2018-09-10T00:37:12.122Z,78.75
2018-09-10T00:38:17.862Z,78.87
2018-09-10T00:39:22.740Z,79.11
2018-09-10T00:40:27.595Z,79.49
2018-09-10T00:41:32.726Z,80.02
2018-09-10T00:42:37.449Z,80.43
2018-09-10T00:43:42.132Z,80.62
2018-09-10T00:44:46.986Z,80.86
2018-09-10T00:45:52.064Z,81.26
2018-09-10T00:46:56.953Z,81.26
2018-09-10T00:48:02.048Z,81.35
2018-09-10T00:49:07.039Z,81.17
2018-09-10T00:50:12.044Z,81.25
2018-09-10T00:51:18.618Z,81.12
2018-09-10T00:52:23.394Z,81.02
2018-09-10T00:53:28.222Z,80.77
2018-09-10T00:54:33.061Z,80.86
2018-09-10T00:55:37.916Z,80.51
2018-09-10T00:56:42.808Z,80.38
2018-09-10T00:57:47.632Z,80.47
2018-09-10T00:58:52.489Z,80.46
2018-09-10T00:59:58.678Z,80.23
2018-09-10T01:01:03.525Z,80.22
2018-09-10T01:02:08.197Z,79.87
2018-09-10T01:03:14.075Z,79.92
2018-09-10T01:04:18.796Z,79.76
2018-09-10T01:05:23.476Z,79.84
2018-09-10T01:06:28.623Z,79.91
2018-09-10T01:07:33.820Z,80.07
2018-09-10T01:08:38.458Z,80.25
2018-09-10T01:09:43.247Z,80.54
2018-09-10T01:10:48.089Z,80.63
2018-09-10T01:11:52.787Z,80.84
2018-09-10T01:12:58.139Z,81.06
2018-09-10T01:14:02.859Z,81.22
2018-09-10T01:15:22.440Z,81.19
2018-09-10T01:16:28.140Z,81.03
2018-09-10T01:17:32.928Z,81.20
2018-09-10T01:18:37.756Z,81.25
2018-09-10T01:19:43.003Z,81.20
2018-09-10T01:20:47.766Z,81.04
2018-09-10T01:21:53.286Z,81.24
2018-09-10T01:22:59.793Z,80.93
2018-09-10T01:24:05.136Z,81.08
2018-09-10T01:25:10.175Z,81.06
2018-09-10T01:26:15.251Z,80.85
2018-09-10T01:27:20.049Z,81.10
2018-09-10T01:28:24.695Z,81.11
2018-09-10T01:29:29.571Z,81.28
2018-09-10T01:30:34.423Z,81.08
2018-09-10T01:31:38.936Z,81.26
2018-09-10T01:32:43.848Z,81.38
2018-09-10T01:33:53.446Z,81.29
2018-09-10T01:35:03.016Z,81.37
2018-09-10T01:36:07.480Z,81.27
2018-09-10T01:37:11.964Z,81.27
2018-09-10T01:38:16.457Z,81.17
2018-09-10T01:39:21.354Z,81.07
2018-09-10T01:40:25.854Z,81.04
2018-09-10T01:41:31.820Z,81.11
2018-09-10T01:42:36.641Z,81.29
2018-09-10T01:43:41.125Z,81.31
2018-09-10T01:44:45.671Z,81.34
2018-09-10T01:45:51.455Z,81.31
2018-09-10T01:46:56.575Z,81.43
2018-09-10T01:48:01.039Z,81.42
2018-09-10T01:49:05.520Z,81.79
2018-09-10T01:50:10.005Z,81.82
2018-09-10T01:51:14.495Z,81.94
2018-09-10T01:52:19.395Z,81.96
2018-09-10T01:53:25.043Z,82.15
2018-09-10T01:54:29.510Z,82.18
2018-09-10T01:55:34.006Z,82.26
2018-09-10T01:56:38.526Z,82.27
2018-09-10T01:57:43.021Z,82.19
2018-09-10T01:58:47.908Z,82.36
2018-09-10T01:59:52.451Z,82.11
2018-09-10T02:00:57.077Z,82.17
2018-09-10T02:02:01.595Z,82.18
2018-09-10T02:03:06.296Z,82.07
2018-09-10T02:04:10.861Z,82.00
2018-09-10T02:05:15.811Z,82.08
2018-09-10T02:06:21.073Z,82.15
2018-09-10T02:07:25.616Z,82.30
2018-09-10T02:08:30.131Z,82.21
2018-09-10T02:09:34.680Z,82.37
2018-09-10T02:10:39.496Z,82.32
2018-09-10T02:11:44.517Z,82.18
2018-09-10T02:12:49.050Z,82.14
2018-09-10T02:13:53.655Z,82.06
2018-09-10T02:14:58.152Z,82.07
2018-09-10T02:16:02.664Z,82.06
2018-09-10T02:17:07.367Z,82.15
2018-09-10T02:18:12.715Z,82.26
2018-09-10T02:19:17.218Z,82.34
2018-09-10T02:20:21.766Z,82.54
2018-09-10T02:21:26.533Z,82.63
2018-09-10T02:22:31.183Z,82.65
2018-09-10T02:23:35.737Z,82.49
2018-09-10T02:24:40.636Z,82.56
2018-09-10T02:25:45.147Z,82.64
2018-09-10T02:26:49.891Z,82.87
2018-09-10T02:27:54.421Z,82.99
2018-09-10T02:28:59.516Z,83.40
2018-09-10T02:30:04.041Z,83.56
2018-09-10T02:31:08.945Z,83.80
2018-09-10T02:32:13.952Z,83.76
2018-09-10T02:33:18.496Z,83.94
2018-09-10T02:34:22.969Z,83.88
2018-09-10T02:35:27.481Z,83.69
2018-09-10T02:36:32.155Z,83.64
2018-09-10T02:37:37.116Z,83.58
2018-09-10T02:38:42.388Z,83.45
2018-09-10T02:39:47.036Z,83.20
2018-09-10T02:40:51.550Z,83.18
2018-09-10T02:41:56.472Z,83.15
2018-09-10T02:43:01.227Z,82.93
2018-09-10T02:44:06.160Z,82.78
2018-09-10T02:45:10.721Z,82.93
2018-09-10T02:46:15.262Z,82.92
2018-09-10T02:47:19.795Z,82.80
2018-09-10T02:48:24.419Z,82.85
2018-09-10T02:49:28.957Z,82.66
2018-09-10T02:50:33.924Z,82.64
2018-09-10T02:51:38.456Z,82.46
2018-09-10T02:52:42.981Z,82.38
2018-09-10T02:53:47.592Z,82.17
2018-09-10T02:54:52.407Z,82.40
2018-09-10T02:55:57.124Z,82.20
2018-09-10T02:57:02.232Z,82.22
2018-09-10T02:58:06.793Z,82.04
2018-09-10T02:59:11.320Z,82.24
2018-09-10T03:00:15.920Z,82.19
2018-09-10T03:01:20.472Z,82.04
2018-09-10T03:02:24.970Z,81.95
2018-09-10T03:03:29.866Z,81.97
2018-09-10T03:04:34.385Z,81.97
2018-09-10T03:05:39.007Z,82.15
2018-09-10T03:06:43.553Z,82.13
2018-09-10T03:07:48.116Z,81.95
2018-09-10T03:08:52.652Z,82.00
2018-09-10T03:09:58.357Z,82.08
2018-09-10T03:11:03.213Z,81.88
2018-09-10T03:12:08.134Z,81.97
2018-09-10T03:13:12.651Z,82.22
2018-09-10T03:14:17.197Z,82.27
2018-09-10T03:15:21.839Z,82.37
2018-09-10T03:16:27.297Z,82.61
2018-09-10T03:17:31.956Z,82.67
2018-09-10T03:18:36.475Z,82.77
2018-09-10T03:19:41.157Z,83.00
2018-09-10T03:20:45.645Z,82.94
2018-09-10T03:21:50.376Z,82.85
2018-09-10T03:22:55.247Z,82.83
2018-09-10T03:24:00.117Z,82.89
2018-09-10T03:25:04.664Z,82.68
2018-09-10T03:26:09.123Z,82.67
2018-09-10T03:27:14.515Z,82.64
2018-09-10T03:28:19.109Z,82.50
2018-09-10T03:29:23.924Z,82.65
2018-09-10T03:30:28.408Z,82.97
2018-09-10T03:31:32.928Z,83.30
2018-09-10T03:32:37.424Z,83.74
2018-09-10T03:33:42.058Z,83.83
2018-09-10T03:34:46.540Z,84.12
2018-09-10T03:35:51.491Z,84.28
2018-09-10T03:36:55.987Z,84.52
2018-09-10T03:38:00.583Z,84.54
2018-09-10T03:39:05.389Z,84.62
2018-09-10T03:40:09.905Z,84.50
2018-09-10T03:41:14.377Z,84.38
2018-09-10T03:42:19.126Z,84.24
2018-09-10T03:43:23.591Z,84.19
2018-09-10T03:44:28.128Z,84.09
2018-09-10T03:45:32.651Z,84.01
2018-09-10T03:46:37.334Z,84.09
2018-09-10T03:47:41.869Z,83.99
2018-09-10T03:48:46.798Z,83.83
2018-09-10T03:49:51.283Z,83.71
2018-09-10T03:50:56.327Z,83.94
2018-09-10T03:52:00.779Z,83.82
2018-09-10T03:53:05.277Z,84.06
2018-09-10T03:54:09.745Z,83.72
2018-09-10T03:55:14.993Z,83.86
2018-09-10T03:56:19.545Z,83.75
2018-09-10T03:57:24.424Z,84.06
2018-09-10T03:58:29.457Z,83.95
2018-09-10T03:59:33.915Z,84.27
2018-09-10T04:00:38.438Z,84.19
2018-09-10T04:01:43.325Z,84.30
2018-09-10T04:02:47.880Z,84.40
2018-09-10T04:03:52.394Z,84.69
2018-09-10T04:04:56.924Z,84.96
2018-09-10T04:06:01.535Z,84.98
2018-09-10T04:07:06.247Z,84.94
2018-09-10T04:08:13.284Z,85.07
2018-09-10T04:09:17.827Z,84.94
2018-09-10T04:10:22.356Z,84.95
2018-09-10T04:11:26.860Z,84.94
2018-09-10T04:12:32.349Z,84.73
2018-09-10T04:13:39.542Z,84.70
2018-09-10T04:14:46.473Z,84.56
2018-09-10T04:15:51.025Z,84.54
2018-09-10T04:16:55.635Z,84.58
2018-09-10T04:18:00.087Z,84.52
2018-09-10T04:19:04.677Z,84.37
2018-09-10T04:20:11.772Z,84.37
2018-09-10T04:21:16.703Z,84.43
2018-09-10T04:22:21.207Z,84.41
2018-09-10T04:23:25.686Z,84.36
2018-09-10T04:24:31.360Z,84.23
2018-09-10T04:25:35.843Z,84.17
2018-09-10T04:26:40.355Z,84.29
2018-09-10T04:27:45.534Z,84.20
2018-09-10T04:28:50.099Z,84.19
2018-09-10T04:29:54.580Z,84.21
2018-09-10T04:30:59.170Z,84.18
2018-09-10T04:32:03.720Z,84.50
2018-09-10T04:33:08.244Z,84.64
2018-09-10T04:34:13.106Z,84.74
2018-09-10T04:35:17.707Z,84.76
2018-09-10T04:36:22.225Z,84.83
2018-09-10T04:37:26.741Z,84.88
2018-09-10T04:38:31.245Z,84.76
2018-09-10T04:39:37.630Z,84.62
2018-09-10T04:40:42.705Z,84.74
2018-09-10T04:41:47.222Z,84.75
2018-09-10T04:42:51.784Z,84.48
2018-09-10T04:43:56.643Z,84.75
2018-09-10T04:45:01.326Z,84.68
2018-09-10T04:46:05.881Z,84.69
2018-09-10T04:47:10.719Z,84.80
2018-09-10T04:48:15.268Z,84.83
2018-09-10T04:49:19.801Z,84.84
2018-09-10T04:50:24.368Z,84.75
2018-09-10T04:51:28.917Z,84.93
2018-09-10T04:52:33.432Z,85.13
2018-09-10T04:53:37.979Z,85.31
2018-09-10T04:54:42.521Z,85.47
2018-09-10T04:55:47.025Z,85.57
2018-09-10T04:56:51.588Z,85.60
2018-09-10T04:57:56.226Z,85.56
2018-09-10T04:59:01.304Z,85.49
2018-09-10T05:00:05.951Z,85.56
2018-09-10T05:01:10.502Z,85.60
2018-09-10T05:02:15.121Z,85.86
2018-09-10T05:03:21.693Z,85.83
2018-09-10T05:04:26.534Z,85.90
2018-09-10T05:05:31.429Z,85.93
2018-09-10T05:06:36.564Z,85.79
2018-09-10T05:07:41.079Z,85.74
2018-09-10T05:08:46.561Z,85.36
2018-09-10T05:09:51.219Z,85.51
2018-09-10T05:10:56.695Z,85.52
2018-09-10T05:12:01.556Z,85.63
2018-09-10T05:13:06.224Z,85.63
2018-09-10T05:14:10.725Z,85.86
2018-09-10T05:15:15.358Z,86.01
2018-09-10T05:16:19.871Z,85.99
2018-09-10T05:17:24.378Z,86.28
2018-09-10T05:18:29.177Z,86.31
2018-09-10T05:19:35.084Z,86.33
2018-09-10T05:20:40.591Z,86.32
2018-09-10T05:21:45.204Z,86.17
2018-09-10T05:22:49.928Z,86.04
2018-09-10T05:23:54.503Z,85.95
2018-09-10T05:24:59.670Z,85.84
2018-09-10T05:26:04.285Z,85.86
2018-09-10T05:27:08.813Z,86.04
2018-09-10T05:28:13.496Z,86.26
2018-09-10T05:29:18.084Z,86.26
2018-09-10T05:33:17.543Z,86.10
2018-09-10T05:34:22.105Z,85.87
2018-09-10T05:35:26.659Z,85.62
2018-09-10T05:36:31.325Z,85.56
2018-09-10T05:37:35.891Z,85.60
2018-09-10T05:38:40.660Z,85.70
2018-09-10T05:39:45.304Z,85.45
2018-09-10T05:40:49.830Z,85.36
2018-09-10T05:41:55.368Z,85.12
2018-09-10T05:43:01.162Z,85.15
2018-09-10T05:44:06.695Z,84.98
2018-09-10T05:45:12.758Z,85.12
2018-09-10T05:46:17.448Z,85.18
2018-09-10T05:47:22.231Z,84.90
2018-09-10T05:48:26.749Z,84.90
2018-09-10T05:49:31.294Z,84.79
2018-09-10T05:50:36.318Z,84.85
2018-09-10T05:51:40.888Z,84.87
2018-09-10T05:52:45.459Z,84.65
2018-09-10T05:53:49.988Z,84.45
2018-09-10T05:54:54.560Z,84.38
2018-09-10T05:55:59.125Z,84.19
2018-09-10T05:57:03.992Z,84.04
2018-09-10T05:58:08.547Z,83.82
2018-09-10T05:59:13.103Z,84.02
2018-09-10T06:00:17.661Z,83.87
2018-09-10T06:01:23.800Z,84.06
2018-09-10T06:02:28.425Z,83.87
2018-09-10T06:03:32.921Z,83.87
2018-09-10T06:04:37.463Z,83.60
2018-09-10T06:05:42.007Z,83.57
2018-09-10T06:06:46.625Z,83.38
2018-09-10T06:07:51.258Z,83.23
2018-09-10T06:08:55.831Z,83.27
2018-09-10T06:10:00.339Z,83.34
2018-09-10T06:11:05.051Z,83.16
2018-09-10T06:12:09.549Z,83.37
2018-09-10T06:13:14.115Z,83.08
2018-09-10T06:14:18.639Z,83.14
2018-09-10T06:15:23.215Z,83.11
2018-09-10T06:16:28.531Z,82.97
2018-09-10T06:17:33.084Z,82.82
2018-09-10T06:18:37.588Z,82.62
2018-09-10T06:19:42.713Z,82.57
2018-09-10T06:20:47.262Z,82.52
2018-09-10T06:21:51.809Z,82.56
2018-09-10T06:22:57.322Z,82.46
2018-09-10T06:24:02.490Z,82.63
2018-09-10T06:25:08.050Z,82.35
2018-09-10T06:26:13.125Z,82.07
2018-09-10T06:27:17.624Z,81.79
2018-09-10T06:28:22.224Z,81.91
2018-09-10T06:29:27.540Z,81.71
2018-09-10T06:30:32.050Z,81.17
2018-09-10T06:31:36.726Z,81.10
2018-09-10T06:32:41.853Z,81.00
2018-09-10T06:33:46.413Z,80.26
2018-09-10T06:34:51.590Z,80.27
2018-09-10T06:35:56.897Z,80.05
2018-09-10T06:37:01.950Z,79.86
2018-09-10T06:38:10.535Z,80.08
2018-09-10T06:39:15.515Z,79.71
2018-09-10T06:40:20.644Z,79.06
2018-09-10T06:41:25.206Z,79.06
2018-09-10T06:42:29.714Z,78.77
2018-09-10T06:43:34.273Z,78.97
2018-09-10T06:44:40.695Z,78.99
2018-09-10T06:45:45.524Z,78.82
2018-09-10T06:46:50.027Z,78.74
2018-09-10T06:47:54.593Z,78.40
2018-09-10T06:48:59.217Z,78.42
2018-09-10T06:50:04.062Z,78.18
2018-09-10T06:51:08.793Z,77.75
2018-09-10T06:52:13.877Z,77.60
2018-09-10T06:53:18.700Z,77.43
2018-09-10T06:54:23.368Z,77.30
2018-09-10T06:55:28.101Z,77.37
2018-09-10T06:56:32.897Z,77.24
2018-09-10T06:57:37.661Z,77.38
2018-09-10T06:58:42.710Z,77.03
2018-09-10T06:59:47.971Z,77.20
2018-09-10T07:00:52.726Z,77.06
2018-09-10T07:01:57.964Z,77.26
2018-09-10T07:03:02.646Z,77.33
2018-09-10T07:04:07.590Z,77.45
2018-09-10T07:05:12.401Z,77.34
2018-09-10T07:06:17.560Z,77.37
2018-09-10T07:07:22.223Z,77.05
2018-09-10T07:08:26.955Z,77.20
2018-09-10T07:09:32.340Z,77.04
2018-09-10T07:10:37.794Z,77.26
2018-09-10T07:11:42.948Z,77.12
2018-09-10T07:12:47.963Z,77.51
2018-09-10T07:13:52.663Z,77.22
2018-09-10T07:14:57.344Z,77.50
2018-09-10T07:16:01.816Z,77.37
2018-09-10T07:17:09.090Z,77.41
2018-09-10T07:18:13.808Z,77.56
2018-09-10T07:19:18.591Z,77.66
2018-09-10T07:20:23.357Z,77.86
2018-09-10T07:21:28.040Z,77.75
2018-09-10T07:22:32.774Z,77.96
2018-09-10T07:23:37.790Z,77.92
2018-09-10T07:24:42.505Z,77.70
2018-09-10T07:25:47.067Z,77.80
2018-09-10T07:26:51.727Z,77.93
2018-09-10T07:27:56.429Z,77.86
2018-09-10T07:30:23.645Z,78.16
2018-09-10T07:31:30.236Z,78.08
2018-09-10T07:32:35.190Z,77.85
2018-09-10T07:35:07.767Z,78.19
2018-09-10T07:36:13.297Z,77.88
2018-09-10T07:37:19.699Z,78.22
2018-09-10T07:38:25.874Z,78.25
2018-09-10T07:39:32.071Z,78.12
2018-09-10T07:40:36.589Z,77.83
2018-09-10T07:41:42.280Z,77.94
2018-09-10T07:42:47.560Z,77.88
2018-09-10T07:43:53.622Z,78.05
2018-09-10T07:44:58.228Z,78.30
2018-09-10T07:46:03.691Z,78.15
2018-09-10T07:47:13.225Z,78.08
2018-09-10T07:48:18.041Z,77.73
2018-09-10T07:49:22.685Z,77.83
2018-09-10T07:50:28.065Z,77.57
2018-09-10T07:51:32.567Z,77.64
2018-09-10T07:52:37.123Z,77.77
2018-09-10T07:53:41.759Z,77.50
2018-09-10T07:54:46.619Z,77.52
2018-09-10T07:55:52.268Z,77.40
2018-09-10T07:56:58.628Z,77.57
2018-09-10T07:58:03.701Z,77.37
2018-09-10T07:59:08.921Z,77.09
2018-09-10T08:02:06.089Z,76.91
2018-09-10T08:03:15.895Z,76.66
2018-09-10T08:04:20.995Z,76.83
2018-09-10T08:05:26.629Z,100.00
2018-09-10T08:06:31.524Z,100.00
2018-09-10T08:07:36.061Z,76.05
2018-09-10T08:08:40.626Z,76.08
2018-09-10T08:09:45.226Z,76.36
2018-09-10T08:10:49.731Z,100.00
2018-09-10T08:11:54.793Z,100.00
2018-09-10T08:12:59.364Z,100.00
2018-09-10T08:14:04.954Z,75.19
2018-09-10T08:15:10.044Z,0.00
2018-09-10T08:16:16.159Z,72.85
2018-09-10T08:17:21.043Z,72.78
2018-09-10T08:18:26.041Z,72.40
2018-09-10T08:19:30.538Z,72.08
2018-09-10T08:20:37.392Z,71.74
2018-09-10T08:21:42.665Z,100.00
2018-09-10T08:23:04.402Z,100.00
2018-09-10T08:24:11.850Z,100.00
2018-09-10T08:25:16.704Z,100.00
2018-09-10T08:26:35.461Z,100.00
2018-09-10T08:27:40.072Z,68.54
2018-09-10T08:28:45.570Z,68.83
2018-09-10T08:29:50.165Z,68.03
2018-09-10T08:30:55.219Z,67.52
2018-09-10T08:32:00.017Z,67.21
2018-09-10T08:33:04.591Z,68.11
2018-09-10T08:34:11.101Z,67.67
2018-09-10T08:35:15.937Z,67.93
2018-09-10T08:36:21.149Z,68.28
2018-09-10T08:37:28.219Z,67.46
2018-09-10T08:38:33.006Z,65.53
2018-09-10T08:39:37.607Z,64.41
2018-09-10T08:40:42.179Z,63.06
2018-09-10T08:41:48.514Z,62.02
2018-09-10T08:42:53.192Z,59.85
2018-09-10T08:43:57.730Z,59.15
2018-09-10T08:45:02.394Z,58.47
2018-09-10T08:46:07.551Z,59.25
2018-09-10T08:47:15.650Z,58.75
2018-09-10T08:48:20.175Z,58.91
2018-09-10T08:49:24.710Z,58.79
2018-09-10T08:50:29.567Z,59.27
2018-09-10T08:51:34.669Z,59.39
2018-09-10T08:52:39.241Z,59.98
2018-09-10T08:53:43.777Z,59.81
2018-09-10T08:54:48.642Z,60.09
2018-09-10T08:55:53.085Z,60.02
2018-09-10T08:56:57.861Z,59.75
2018-09-10T08:58:03.056Z,59.39
2018-09-10T08:59:07.606Z,59.40
2018-09-10T09:00:12.252Z,59.24
2018-09-10T09:01:17.571Z,58.93
2018-09-10T09:02:22.493Z,58.93
2018-09-10T09:03:29.638Z,59.03
2018-09-10T09:04:34.534Z,58.89
2018-09-10T09:05:39.047Z,58.48
2018-09-10T09:06:44.739Z,58.81
2018-09-10T09:07:49.732Z,58.48
2018-09-10T09:08:54.197Z,58.19
2018-09-10T09:09:59.057Z,57.60
2018-09-10T09:11:04.199Z,57.67
2018-09-10T09:12:08.725Z,57.44
2018-09-10T09:13:13.240Z,56.97
2018-09-10T09:14:17.784Z,56.36
2018-09-10T09:15:22.942Z,56.36
2018-09-10T09:16:28.088Z,56.24
2018-09-10T09:17:34.701Z,56.57
2018-09-10T09:18:39.613Z,56.05
2018-09-10T09:19:44.346Z,55.32
2018-09-10T09:20:50.369Z,55.62
2018-09-10T09:21:56.435Z,54.51
2018-09-10T09:23:01.249Z,55.00
2018-09-10T09:24:08.762Z,53.88
2018-09-10T09:25:13.232Z,100.00
2018-09-10T09:26:18.570Z,53.93
2018-09-10T09:27:23.178Z,54.18
2018-09-10T09:28:27.680Z,52.87
2018-09-10T09:29:32.274Z,53.56
2018-09-10T09:30:36.909Z,52.06
2018-09-10T09:31:41.957Z,51.35
2018-09-10T09:32:47.365Z,0.00
2018-09-10T09:33:54.928Z,52.01
2018-09-10T09:35:00.387Z,51.42
2018-09-10T09:36:11.553Z,50.35
2018-09-10T09:37:22.398Z,50.02
2018-09-10T09:38:32.449Z,0.00
2018-09-10T09:39:43.215Z,49.28
2018-09-10T09:40:53.299Z,49.85
2018-09-10T09:42:03.167Z,100.00
2018-09-10T09:43:13.451Z,48.19
2018-09-10T09:44:23.588Z,48.12
2018-09-10T09:45:34.749Z,48.25
2018-09-10T09:46:39.231Z,100.00
2018-09-10T09:47:45.556Z,48.20
2018-09-10T09:48:50.313Z,47.57
2018-09-10T09:49:55.636Z,47.41
2018-09-10T09:51:00.180Z,48.08
2018-09-10T09:52:06.461Z,47.74
2018-09-10T09:53:10.956Z,48.02
2018-09-10T09:54:16.339Z,48.69
2018-09-10T09:55:22.004Z,48.91
2018-09-10T09:56:26.701Z,48.66
2018-09-10T09:57:32.230Z,48.16
2018-09-10T09:58:37.821Z,49.00
2018-09-10T09:59:42.911Z,47.42
2018-09-10T10:00:50.668Z,48.06
2018-09-10T10:02:01.052Z,48.00
2018-09-10T10:03:10.663Z,47.73
2018-09-10T10:04:16.249Z,47.50
2018-09-10T10:05:24.075Z,47.25
2018-09-10T10:06:30.131Z,46.91
2018-09-10T10:07:34.643Z,46.18
2018-09-10T10:08:40.852Z,47.48
2018-09-10T10:09:47.272Z,47.50
2018-09-10T10:10:53.178Z,47.43
2018-09-10T10:11:59.367Z,46.41
2018-09-10T10:13:06.994Z,46.59
2018-09-10T10:14:12.106Z,46.19
2018-09-10T10:15:17.138Z,46.79
2018-09-10T10:16:23.411Z,47.54
2018-09-10T10:17:28.057Z,46.60
2018-09-10T10:18:32.651Z,46.40
2018-09-10T10:19:39.798Z,46.18
2018-09-10T10:20:44.299Z,45.83
2018-09-10T10:21:50.715Z,44.91
2018-09-10T10:22:55.276Z,45.17
2018-09-10T10:24:00.488Z,45.30
2018-09-10T10:25:04.956Z,45.34
2018-09-10T10:26:10.438Z,44.63
2018-09-10T10:27:16.424Z,45.01
2018-09-10T10:28:24.664Z,45.76
2018-09-10T10:29:30.167Z,45.89
2018-09-10T10:32:25.142Z,46.50
2018-09-10T10:33:32.682Z,45.96
2018-09-10T10:34:38.328Z,44.59
2018-09-10T10:35:43.677Z,44.77
2018-09-10T10:36:48.488Z,44.23
2018-09-10T10:37:56.763Z,44.97
2018-09-10T10:39:01.953Z,44.70
2018-09-10T10:40:07.110Z,45.26
2018-09-10T10:41:12.950Z,100.00
2018-09-10T10:42:18.161Z,46.35
2018-09-10T10:43:23.369Z,47.04
2018-09-10T10:44:29.792Z,45.39
2018-09-10T10:45:36.282Z,45.86
2018-09-10T10:46:43.526Z,45.78
2018-09-10T10:47:48.907Z,46.49
2018-09-10T10:48:53.855Z,100.00
2018-09-10T10:49:59.707Z,44.66
2018-09-10T10:51:06.139Z,44.97
2018-09-10T10:52:10.774Z,44.11
2018-09-10T10:53:16.831Z,44.42
2018-09-10T10:54:22.283Z,44.17
2018-09-10T10:55:28.216Z,43.22
2018-09-10T10:56:34.337Z,43.87
2018-09-10T10:57:39.160Z,44.81
2018-09-10T10:58:45.470Z,44.93
2018-09-10T10:59:50.460Z,45.25
2018-09-10T11:00:55.923Z,44.37
2018-09-10T11:02:04.605Z,45.86
2018-09-10T11:03:10.295Z,45.37
2018-09-10T11:04:15.293Z,44.81
2018-09-10T11:05:23.193Z,45.27
2018-09-10T11:06:28.040Z,45.19
2018-09-10T11:07:34.178Z,44.84
2018-09-10T11:08:40.089Z,45.34
2018-09-10T11:09:44.766Z,45.49
2018-09-10T11:10:51.059Z,46.15
2018-09-10T11:11:56.170Z,46.79
2018-09-10T11:13:02.274Z,47.08
2018-09-10T11:14:07.952Z,47.63
2018-09-10T11:15:13.248Z,47.46
2018-09-10T11:16:18.638Z,47.33
2018-09-10T11:17:24.540Z,47.04
2018-09-10T11:18:30.024Z,47.85
2018-09-10T11:19:34.577Z,47.69
2018-09-10T11:20:39.104Z,47.80
2018-09-10T11:21:46.633Z,47.79
2018-09-10T11:22:52.073Z,47.42
2018-09-10T11:23:56.608Z,45.59
2018-09-10T11:25:01.369Z,46.70
2018-09-10T11:26:06.459Z,45.61
2018-09-10T11:27:17.569Z,47.12
2018-09-10T11:28:26.349Z,46.59
2018-09-10T11:29:32.493Z,47.33
2018-09-10T11:30:38.184Z,47.21
2018-09-10T11:32:57.990Z,46.62
2018-09-10T11:34:04.620Z,47.18
2018-09-10T11:35:09.313Z,47.52
2018-09-10T11:36:18.829Z,46.03
2018-09-10T11:37:24.354Z,44.98
2018-09-10T11:38:32.352Z,45.19
2018-09-10T11:39:37.026Z,45.46
2018-09-10T11:40:41.532Z,44.80
2018-09-10T11:41:47.906Z,44.00
2018-09-10T11:42:53.827Z,44.99
2018-09-10T11:43:58.915Z,44.08
2018-09-10T11:45:04.743Z,44.32
2018-09-10T11:46:10.489Z,44.22
2018-09-10T11:47:15.281Z,43.86
2018-09-10T11:48:19.762Z,43.05
2018-09-10T11:49:26.892Z,42.27
2018-09-10T11:50:33.652Z,42.38
2018-09-10T11:51:39.799Z,42.16
2018-09-10T11:52:44.321Z,42.28
2018-09-10T11:53:48.884Z,41.91
2018-09-10T11:54:54.097Z,42.12
2018-09-10T11:56:06.249Z,41.54
2018-09-10T11:57:11.181Z,41.65
2018-09-10T11:58:16.834Z,41.93
2018-09-10T11:59:22.485Z,41.81
2018-09-10T12:00:28.656Z,42.59
2018-09-10T12:01:33.461Z,43.17
2018-09-10T12:02:38.418Z,44.25
2018-09-10T12:03:43.969Z,44.70
2018-09-10T12:04:48.504Z,44.70
2018-09-10T12:05:53.007Z,44.38
2018-09-10T12:06:57.537Z,44.46
2018-09-10T12:08:03.236Z,45.86
2018-09-10T12:09:11.340Z,45.91
2018-09-10T12:10:15.902Z,45.23
2018-09-10T12:11:20.439Z,44.31
2018-09-10T12:12:26.086Z,44.32
2018-09-10T12:13:30.630Z,43.88
2018-09-10T12:14:35.456Z,43.53
2018-09-10T12:15:41.330Z,43.19
2018-09-10T12:16:46.007Z,43.03
2018-09-10T12:17:53.549Z,43.05
2018-09-10T12:18:58.415Z,42.85
2018-09-10T12:20:04.951Z,41.59
2018-09-10T12:21:09.902Z,40.77
2018-09-10T12:22:14.502Z,41.94
2018-09-10T12:23:19.034Z,42.48
2018-09-10T12:24:23.703Z,42.62
2018-09-10T12:25:29.099Z,42.64
2018-09-10T12:26:33.875Z,42.49
2018-09-10T12:27:39.715Z,42.79
2018-09-10T12:28:44.192Z,42.50
2018-09-10T12:29:48.720Z,42.49
2018-09-10T12:30:53.680Z,42.94
2018-09-10T12:32:01.350Z,43.55
2018-09-10T12:33:06.421Z,43.03
2018-09-10T12:34:13.140Z,43.38
2018-09-10T12:35:20.852Z,43.75
2018-09-10T12:36:26.185Z,43.59
2018-09-10T12:37:31.693Z,43.61
2018-09-10T12:38:40.355Z,43.55
2018-09-10T12:39:45.636Z,43.69
2018-09-10T12:40:51.599Z,43.89
2018-09-10T12:41:57.765Z,43.65
2018-09-10T12:43:02.344Z,43.35
2018-09-10T12:44:09.543Z,42.81
2018-09-10T12:45:14.103Z,42.96
2018-09-10T12:46:18.669Z,42.97
2018-09-10T12:47:25.082Z,43.41
2018-09-10T12:48:31.909Z,43.16
2018-09-10T12:49:36.465Z,43.27
2018-09-10T12:50:41.504Z,43.99
2018-09-10T12:51:46.485Z,44.75
2018-09-10T12:52:50.944Z,44.86
2018-09-10T12:53:56.073Z,45.58
2018-09-10T12:55:01.381Z,45.40
2018-09-10T12:56:05.904Z,45.23
2018-09-10T12:57:10.366Z,46.90
2018-09-10T12:58:14.919Z,46.35
2018-09-10T12:59:19.544Z,46.70
2018-09-10T13:00:25.654Z,47.40
2018-09-10T13:01:30.158Z,47.09
2018-09-10T13:02:34.793Z,46.76
2018-09-10T13:03:39.526Z,46.98
2018-09-10T13:04:45.046Z,45.86
2018-09-10T13:05:50.893Z,46.31
2018-09-10T13:06:55.704Z,45.99
2018-09-10T13:08:00.272Z,46.56
2018-09-10T13:09:05.821Z,46.87
2018-09-10T13:10:10.291Z,46.30
2018-09-10T13:11:17.374Z,45.62
2018-09-10T13:12:21.976Z,46.49
2018-09-10T13:13:26.994Z,45.36
2018-09-10T13:14:32.440Z,45.23
2018-09-10T13:15:38.440Z,46.73
2018-09-10T13:16:42.994Z,46.06
2018-09-10T13:17:47.505Z,45.77
2018-09-10T13:18:52.813Z,45.47
2018-09-10T13:19:59.553Z,45.85
2018-09-10T13:21:06.042Z,45.96
2018-09-10T13:22:12.319Z,45.68
2018-09-10T13:23:17.390Z,45.93
2018-09-10T13:24:22.908Z,45.91
2018-09-10T13:25:30.305Z,45.26
2018-09-10T13:26:35.425Z,45.95
2018-09-10T13:27:39.989Z,45.31
2018-09-10T13:28:46.525Z,45.37
2018-09-10T13:29:51.357Z,46.19
2018-09-10T13:30:56.081Z,45.20
2018-09-10T13:32:00.648Z,46.05
2018-09-10T13:33:06.948Z,46.20
2018-09-10T13:34:11.576Z,46.02
2018-09-10T13:35:16.440Z,45.53
2018-09-10T13:36:21.180Z,46.12
2018-09-10T13:37:26.252Z,45.15
2018-09-10T13:38:33.791Z,45.41
2018-09-10T13:39:39.585Z,45.62
2018-09-10T13:40:44.814Z,45.91
2018-09-10T13:41:49.434Z,45.33
2018-09-10T13:42:54.369Z,46.19
2018-09-10T13:43:58.873Z,46.14
2018-09-10T13:45:05.591Z,44.77
2018-09-10T13:46:10.072Z,45.97
2018-09-10T13:47:14.690Z,45.66
2018-09-10T13:48:20.597Z,45.11
2018-09-10T13:49:27.267Z,44.38
2018-09-10T13:50:33.438Z,45.58
2018-09-10T13:51:42.663Z,45.67
2018-09-10T13:52:47.657Z,45.02
2018-09-10T13:53:53.338Z,45.63
2018-09-10T13:54:57.818Z,45.76
2018-09-10T13:56:04.577Z,46.02
2018-09-10T13:57:10.346Z,45.85
2018-09-10T13:58:16.224Z,45.70
2018-09-10T13:59:22.593Z,46.48
2018-09-10T14:00:27.177Z,45.91
2018-09-10T14:01:31.665Z,46.23
2018-09-10T14:02:37.482Z,45.75
2018-09-10T14:03:41.983Z,46.64
2018-09-10T14:04:48.315Z,46.20
2018-09-10T14:05:53.584Z,44.62
2018-09-10T14:06:59.556Z,45.23
2018-09-10T14:08:04.998Z,45.28
2018-09-10T14:09:09.516Z,44.93
2018-09-10T14:10:14.006Z,43.69
2018-09-10T14:11:18.511Z,45.23